sensor_id;sensor_type;location;lat;lon;timestamp;pressure;altitude;pressure_sealevel;temperature;humidity
74561;BME280;62979;55.720;37.606;2023-05-15T00:00:24;100542.00;;;14.25;45.62
74561;BME280;62979;55.720;37.606;2023-05-15T00:02:53;100546.31;;;14.29;45.75
74561;BME280;62979;55.720;37.606;2023-05-15T00:05:21;100547.16;;;14.29;45.88
74561;BME280;62979;55.720;37.606;2023-05-15T00:07:48;100548.09;;;14.27;46.34
74561;BME280;62979;55.720;37.606;2023-05-15T00:10:15;100541.28;;;14.20;46.36
74561;BME280;62979;55.720;37.606;2023-05-15T00:12:42;100540.34;;;14.22;45.86
74561;BME280;62979;55.720;37.606;2023-05-15T00:15:09;100541.31;;;14.18;46.54
74561;BME280;62979;55.720;37.606;2023-05-15T00:17:37;100546.59;;;14.17;46.36
74561;BME280;62979;55.720;37.606;2023-05-15T00:20:06;100547.50;;;14.16;46.55
74561;BME280;62979;55.720;37.606;2023-05-15T00:22:34;100548.47;;;14.11;46.78
74561;BME280;62979;55.720;37.606;2023-05-15T00:25:01;100552.13;;;14.07;46.95
74561;BME280;62979;55.720;37.606;2023-05-15T00:27:28;100555.72;;;14.03;47.07
74561;BME280;62979;55.720;37.606;2023-05-15T00:29:54;100550.53;;;14.00;47.17
74561;BME280;62979;55.720;37.606;2023-05-15T00:32:21;100554.03;;;13.99;47.15
74561;BME280;62979;55.720;37.606;2023-05-15T00:34:48;100552.41;;;13.95;47.55
74561;BME280;62979;55.720;37.606;2023-05-15T00:37:16;100552.41;;;13.95;47.59
74561;BME280;62979;55.720;37.606;2023-05-15T00:39:43;100550.84;;;13.88;47.67
74561;BME280;62979;55.720;37.606;2023-05-15T00:42:10;100547.47;;;13.83;47.51
74561;BME280;62979;55.720;37.606;2023-05-15T00:44:39;100559.78;;;13.81;47.86
74561;BME280;62979;55.720;37.606;2023-05-15T00:47:09;100553.78;;;13.74;47.99
74561;BME280;62979;55.720;37.606;2023-05-15T00:49:37;100559.03;;;13.74;47.87
74561;BME280;62979;55.720;37.606;2023-05-15T00:52:05;100556.44;;;13.73;47.89
74561;BME280;62979;55.720;37.606;2023-05-15T00:54:34;100554.00;;;13.65;48.08
74561;BME280;62979;55.720;37.606;2023-05-15T00:57:02;100559.22;;;13.68;48.22
74561;BME280;62979;55.720;37.606;2023-05-15T00:59:31;100554.91;;;13.64;48.35
74561;BME280;62979;55.720;37.606;2023-05-15T01:01:59;100560.16;;;13.64;48.13
74561;BME280;62979;55.720;37.606;2023-05-15T01:04:26;100556.69;;;13.63;48.49
74561;BME280;62979;55.720;37.606;2023-05-15T01:06:53;100559.34;;;13.62;48.33
74561;BME280;62979;55.720;37.606;2023-05-15T01:09:41;100561.19;;;13.58;48.72
74561;BME280;62979;55.720;37.606;2023-05-15T01:12:09;100569.09;;;13.57;48.82
74561;BME280;62979;55.720;37.606;2023-05-15T01:14:37;100556.06;;;13.52;48.51
74561;BME280;62979;55.720;37.606;2023-05-15T01:17:04;100555.31;;;13.45;48.81
74561;BME280;62979;55.720;37.606;2023-05-15T01:19:30;100559.69;;;13.46;48.97
74561;BME280;62979;55.720;37.606;2023-05-15T01:22:20;100564.06;;;13.46;49.14
74561;BME280;62979;55.720;37.606;2023-05-15T01:28:21;100563.28;;;13.42;49.20
74561;BME280;62979;55.720;37.606;2023-05-15T01:30:56;100564.13;;;13.43;49.09
74561;BME280;62979;55.720;37.606;2023-05-15T01:33:34;100558.97;;;13.40;49.31
74561;BME280;62979;55.720;37.606;2023-05-15T01:36:10;100561.56;;;13.41;49.16
74561;BME280;62979;55.720;37.606;2023-05-15T01:38:45;100559.03;;;13.37;49.18
74561;BME280;62979;55.720;37.606;2023-05-15T01:41:22;100558.97;;;13.40;49.18
74561;BME280;62979;55.720;37.606;2023-05-15T01:43:59;100560.75;;;13.38;49.48
74561;BME280;62979;55.720;37.606;2023-05-15T01:46:33;100559.06;;;13.34;49.55
74561;BME280;62979;55.720;37.606;2023-05-15T01:49:07;100561.69;;;13.34;49.72
74561;BME280;62979;55.720;37.606;2023-05-15T01:51:38;100560.75;;;13.36;49.64
74561;BME280;62979;55.720;37.606;2023-05-15T01:54:07;100561.69;;;13.35;49.79
74561;BME280;62979;55.720;37.606;2023-05-15T01:56:36;100563.44;;;13.35;49.58
74561;BME280;62979;55.720;37.606;2023-05-15T01:59:09;100562.59;;;13.34;49.64
74561;BME280;62979;55.720;37.606;2023-05-15T02:01:39;100566.00;;;13.38;49.57
74561;BME280;62979;55.720;37.606;2023-05-15T02:04:07;100573.91;;;13.36;49.26
74561;BME280;62979;55.720;37.606;2023-05-15T02:06:35;100573.97;;;13.35;49.47
74561;BME280;62979;55.720;37.606;2023-05-15T02:09:05;100573.03;;;13.36;49.36
74561;BME280;62979;55.720;37.606;2023-05-15T02:11:34;100576.50;;;13.39;49.61
74561;BME280;62979;55.720;37.606;2023-05-15T02:14:03;100577.31;;;13.41;49.60
74561;BME280;62979;55.720;37.606;2023-05-15T02:16:32;100572.94;;;13.42;49.50
74561;BME280;62979;55.720;37.606;2023-05-15T02:18:59;100576.44;;;13.41;49.31
74561;BME280;62979;55.720;37.606;2023-05-15T02:21:26;100570.41;;;13.37;49.35
74561;BME280;62979;55.720;37.606;2023-05-15T02:23:55;100573.75;;;13.44;49.55
74561;BME280;62979;55.720;37.606;2023-05-15T02:26:29;100578.09;;;13.45;49.58
74561;BME280;62979;55.720;37.606;2023-05-15T02:29:09;100583.28;;;13.48;49.63
74561;BME280;62979;55.720;37.606;2023-05-15T02:31:51;100577.16;;;13.49;49.48
74561;BME280;62979;55.720;37.606;2023-05-15T02:34:33;100579.69;;;13.54;49.67
74561;BME280;62979;55.720;37.606;2023-05-15T02:37:09;100585.81;;;13.53;49.72
74561;BME280;62979;55.720;37.606;2023-05-15T02:39:41;100587.47;;;13.57;49.38
74561;BME280;62979;55.720;37.606;2023-05-15T02:42:11;100568.34;;;13.50;49.17
74561;BME280;62979;55.720;37.606;2023-05-15T02:44:41;100588.13;;;13.66;49.13
74561;BME280;62979;55.720;37.606;2023-05-15T02:47:11;100569.00;;;13.61;48.97
74561;BME280;62979;55.720;37.606;2023-05-15T02:49:39;100587.09;;;13.74;48.89
74561;BME280;62979;55.720;37.606;2023-05-15T02:52:06;100590.50;;;13.79;48.85
74561;BME280;62979;55.720;37.606;2023-05-15T02:54:33;100593.03;;;13.82;48.72
74561;BME280;62979;55.720;37.606;2023-05-15T02:57:00;100589.38;;;13.89;48.06
74561;BME280;62979;55.720;37.606;2023-05-15T02:59:27;100591.06;;;13.91;48.06
74561;BME280;62979;55.720;37.606;2023-05-15T03:01:54;100590.13;;;13.94;47.94
74561;BME280;62979;55.720;37.606;2023-05-15T03:04:22;100581.38;;;13.94;48.27
74561;BME280;62979;55.720;37.606;2023-05-15T03:06:49;100596.13;;;13.99;47.44
74561;BME280;62979;55.720;37.606;2023-05-15T03:09:16;100594.31;;;14.01;47.18
74561;BME280;62979;55.720;37.606;2023-05-15T03:11:43;100591.47;;;14.10;47.25
74561;BME280;62979;55.720;37.606;2023-05-15T03:14:10;100600.94;;;14.18;47.25
74561;BME280;62979;55.720;37.606;2023-05-15T03:16:37;100605.19;;;14.23;47.55
74561;BME280;62979;55.720;37.606;2023-05-15T03:19:04;100598.13;;;14.25;47.60
74561;BME280;62979;55.720;37.606;2023-05-15T03:21:32;100570.25;;;14.17;47.14
74561;BME280;62979;55.720;37.606;2023-05-15T03:23:59;100607.56;;;14.34;46.24
74561;BME280;62979;55.720;37.606;2023-05-15T03:26:26;100605.72;;;14.36;46.19
74561;BME280;62979;55.720;37.606;2023-05-15T03:28:54;100610.84;;;14.42;46.01
74561;BME280;62979;55.720;37.606;2023-05-15T03:31:21;100615.16;;;14.45;46.08
74561;BME280;62979;55.720;37.606;2023-05-15T03:33:48;100625.63;;;14.48;46.45
74561;BME280;62979;55.720;37.606;2023-05-15T03:36:15;100614.97;;;14.54;46.11
74561;BME280;62979;55.720;37.606;2023-05-15T03:38:44;100615.69;;;14.61;45.72
74561;BME280;62979;55.720;37.606;2023-05-15T03:41:10;100613.84;;;14.63;45.93
74561;BME280;62979;55.720;37.606;2023-05-15T03:43:37;100615.59;;;14.64;45.37
74561;BME280;62979;55.720;37.606;2023-05-15T03:46:04;100611.97;;;14.68;45.35
74561;BME280;62979;55.720;37.606;2023-05-15T03:48:31;100618.06;;;14.70;45.79
74561;BME280;62979;55.720;37.606;2023-05-15T03:50:58;100620.53;;;14.76;45.82
74561;BME280;62979;55.720;37.606;2023-05-15T03:53:25;100623.91;;;14.81;45.18
74561;BME280;62979;55.720;37.606;2023-05-15T03:55:53;100619.50;;;14.82;45.04
74561;BME280;62979;55.720;37.606;2023-05-15T03:58:20;100622.03;;;14.85;44.93
74561;BME280;62979;55.720;37.606;2023-05-15T04:00:47;100593.41;;;14.72;44.41
74561;BME280;62979;55.720;37.606;2023-05-15T04:03:14;100616.41;;;14.98;44.29
74561;BME280;62979;55.720;37.606;2023-05-15T04:05:41;100611.94;;;15.02;44.12
74561;BME280;62979;55.720;37.606;2023-05-15T04:08:08;100620.59;;;15.06;44.22
74561;BME280;62979;55.720;37.606;2023-05-15T04:10:36;100615.28;;;15.07;44.34
74561;BME280;62979;55.720;37.606;2023-05-15T04:13:04;100596.13;;;15.02;44.37
74561;BME280;62979;55.720;37.606;2023-05-15T04:15:31;100621.06;;;15.20;44.27
74561;BME280;62979;55.720;37.606;2023-05-15T04:17:58;100618.19;;;15.29;44.45
74561;BME280;62979;55.720;37.606;2023-05-15T04:20:25;100626.09;;;15.29;44.31
74561;BME280;62979;55.720;37.606;2023-05-15T04:22:52;100614.75;;;15.26;43.78
74561;BME280;62979;55.720;37.606;2023-05-15T04:25:19;100616.44;;;15.28;43.91
74561;BME280;62979;55.720;37.606;2023-05-15T04:27:46;100612.84;;;15.31;44.08
74561;BME280;62979;55.720;37.606;2023-05-15T04:30:14;100623.31;;;15.34;43.59
74561;BME280;62979;55.720;37.606;2023-05-15T04:32:42;100624.25;;;15.31;44.07
74561;BME280;62979;55.720;37.606;2023-05-15T04:35:09;100618.81;;;15.37;43.29
74561;BME280;62979;55.720;37.606;2023-05-15T04:37:38;100619.41;;;15.47;43.77
74561;BME280;62979;55.720;37.606;2023-05-15T04:40:07;100623.59;;;15.53;43.03
74561;BME280;62979;55.720;37.606;2023-05-15T04:42:35;100614.56;;;15.61;42.91
74561;BME280;62979;55.720;37.606;2023-05-15T04:45:02;100618.78;;;15.67;42.76
74561;BME280;62979;55.720;37.606;2023-05-15T04:47:32;100617.84;;;15.70;42.68
74561;BME280;62979;55.720;37.606;2023-05-15T04:49:58;100618.56;;;15.75;43.32
74561;BME280;62979;55.720;37.606;2023-05-15T04:52:25;100619.47;;;15.75;42.47
74561;BME280;62979;55.720;37.606;2023-05-15T04:54:52;100627.06;;;15.84;43.02
74561;BME280;62979;55.720;37.606;2023-05-15T04:57:20;100620.91;;;15.86;42.44
74561;BME280;62979;55.720;37.606;2023-05-15T04:59:47;100625.06;;;15.93;41.92
74561;BME280;62979;55.720;37.606;2023-05-15T05:02:14;100631.06;;;15.98;42.29
74561;BME280;62979;55.720;37.606;2023-05-15T05:04:42;100631.91;;;15.98;41.84
74561;BME280;62979;55.720;37.606;2023-05-15T05:07:10;100616.75;;;16.05;41.95
74561;BME280;62979;55.720;37.606;2023-05-15T05:09:38;100627.25;;;16.07;42.18
74561;BME280;62979;55.720;37.606;2023-05-15T05:12:06;100616.53;;;16.11;42.41
74561;BME280;62979;55.720;37.606;2023-05-15T05:14:34;100624.06;;;16.23;42.37
74561;BME280;62979;55.720;37.606;2023-05-15T05:17:01;100618.72;;;16.26;41.40
74561;BME280;62979;55.720;37.606;2023-05-15T05:19:28;100614.03;;;16.35;41.06
74561;BME280;62979;55.720;37.606;2023-05-15T05:21:56;100614.03;;;16.35;40.79
74561;BME280;62979;55.720;37.606;2023-05-15T05:24:26;100619.00;;;16.44;41.02
74561;BME280;62979;55.720;37.606;2023-05-15T05:26:54;100615.00;;;16.57;41.01
74561;BME280;62979;55.720;37.606;2023-05-15T05:29:22;100611.13;;;16.67;40.20
74561;BME280;62979;55.720;37.606;2023-05-15T05:31:49;100607.34;;;16.75;39.98
74561;BME280;62979;55.720;37.606;2023-05-15T05:34:16;100604.25;;;16.63;38.80
74561;BME280;62979;55.720;37.606;2023-05-15T05:36:43;100597.91;;;16.67;39.91
74561;BME280;62979;55.720;37.606;2023-05-15T05:39:11;100603.56;;;16.83;39.91
74561;BME280;62979;55.720;37.606;2023-05-15T05:41:38;100600.69;;;16.89;38.56
74561;BME280;62979;55.720;37.606;2023-05-15T05:44:05;100603.50;;;16.85;38.41
74561;BME280;62979;55.720;37.606;2023-05-15T05:46:32;100605.88;;;16.93;39.27
74561;BME280;62979;55.720;37.606;2023-05-15T05:48:59;100604.75;;;17.00;39.22
74561;BME280;62979;55.720;37.606;2023-05-15T05:51:26;100604.56;;;17.04;38.98
74561;BME280;62979;55.720;37.606;2023-05-15T05:53:53;100598.06;;;17.13;38.50
74561;BME280;62979;55.720;37.606;2023-05-15T05:56:21;100605.69;;;17.22;38.84
74561;BME280;62979;55.720;37.606;2023-05-15T05:58:48;100602.56;;;17.35;38.18
74561;BME280;62979;55.720;37.606;2023-05-15T06:01:15;100604.41;;;17.32;37.85
74561;BME280;62979;55.720;37.606;2023-05-15T06:03:42;100595.47;;;17.11;38.85
74561;BME280;62979;55.720;37.606;2023-05-15T06:06:09;100597.09;;;17.16;38.87
74561;BME280;62979;55.720;37.606;2023-05-15T06:08:36;100602.06;;;17.25;39.07
74561;BME280;62979;55.720;37.606;2023-05-15T06:11:03;100590.25;;;17.33;38.29
74561;BME280;62979;55.720;37.606;2023-05-15T06:13:32;100592.25;;;17.50;37.51
74561;BME280;62979;55.720;37.606;2023-05-15T06:15:59;100600.78;;;17.59;38.52
74561;BME280;62979;55.720;37.606;2023-05-15T06:18:26;100594.63;;;17.58;37.22
74561;BME280;62979;55.720;37.606;2023-05-15T06:20:52;100589.19;;;17.61;38.08
74561;BME280;62979;55.720;37.606;2023-05-15T06:23:19;100587.41;;;17.62;38.29
74561;BME280;62979;55.720;37.606;2023-05-15T06:25:46;100581.69;;;17.72;38.78
74561;BME280;62979;55.720;37.606;2023-05-15T06:28:13;100584.09;;;17.79;37.60
74561;BME280;62979;55.720;37.606;2023-05-15T06:30:42;100591.09;;;17.81;37.71
74561;BME280;62979;55.720;37.606;2023-05-15T06:33:09;100562.56;;;17.66;37.87
74561;BME280;62979;55.720;37.606;2023-05-15T06:35:36;100594.00;;;17.73;37.13
74561;BME280;62979;55.720;37.606;2023-05-15T06:38:02;100583.88;;;17.85;36.58
74561;BME280;62979;55.720;37.606;2023-05-15T06:40:29;100586.34;;;17.89;36.37
74561;BME280;62979;55.720;37.606;2023-05-15T06:42:56;100590.41;;;17.98;37.06
74561;BME280;62979;55.720;37.606;2023-05-15T06:45:24;100580.81;;;17.95;35.94
74561;BME280;62979;55.720;37.606;2023-05-15T06:47:52;100584.94;;;18.03;37.02
74561;BME280;62979;55.720;37.606;2023-05-15T06:50:19;100585.72;;;18.05;37.23
74561;BME280;62979;55.720;37.606;2023-05-15T06:52:46;100572.28;;;18.31;35.45
74561;BME280;62979;55.720;37.606;2023-05-15T06:55:13;100579.78;;;18.40;36.00
74561;BME280;62979;55.720;37.606;2023-05-15T06:57:40;100587.69;;;18.42;35.61
74561;BME280;62979;55.720;37.606;2023-05-15T07:00:08;100587.75;;;18.40;36.19
74561;BME280;62979;55.720;37.606;2023-05-15T07:02:36;100584.19;;;18.42;36.78
74561;BME280;62979;55.720;37.606;2023-05-15T07:05:05;100582.25;;;18.45;35.27
74561;BME280;62979;55.720;37.606;2023-05-15T07:07:33;100578.41;;;18.52;36.07
74561;BME280;62979;55.720;37.606;2023-05-15T07:10:00;100592.78;;;18.67;36.26
74561;BME280;62979;55.720;37.606;2023-05-15T07:12:27;100588.97;;;18.54;35.57
74561;BME280;62979;55.720;37.606;2023-05-15T07:14:53;100588.16;;;18.52;36.56
74561;BME280;62979;55.720;37.606;2023-05-15T07:17:20;100591.53;;;18.35;34.47
74561;BME280;62979;55.720;37.606;2023-05-15T07:19:47;100564.56;;;18.46;35.54
74561;BME280;62979;55.720;37.606;2023-05-15T07:22:15;100579.94;;;18.58;35.92
74561;BME280;62979;55.720;37.606;2023-05-15T07:24:42;100585.66;;;18.49;35.79
74561;BME280;62979;55.720;37.606;2023-05-15T07:27:09;100575.06;;;18.49;34.78
74561;BME280;62979;55.720;37.606;2023-05-15T07:29:36;100579.28;;;18.53;35.05
74561;BME280;62979;55.720;37.606;2023-05-15T07:32:03;100587.16;;;18.54;34.69
74561;BME280;62979;55.720;37.606;2023-05-15T07:34:30;100570.59;;;18.70;35.02
74561;BME280;62979;55.720;37.606;2023-05-15T07:36:57;100571.22;;;18.76;34.80
74561;BME280;62979;55.720;37.606;2023-05-15T07:39:26;100571.91;;;19.00;35.16
74561;BME280;62979;55.720;37.606;2023-05-15T07:41:53;100561.22;;;19.21;34.50
74561;BME280;62979;55.720;37.606;2023-05-15T07:44:19;100553.44;;;19.37;33.54
74561;BME280;62979;55.720;37.606;2023-05-15T07:46:46;100571.44;;;19.49;33.11
74561;BME280;62979;55.720;37.606;2023-05-15T07:49:13;100560.66;;;19.52;32.53
74561;BME280;62979;55.720;37.606;2023-05-15T07:51:40;100561.19;;;19.41;33.82
74561;BME280;62979;55.720;37.606;2023-05-15T07:54:07;100565.13;;;19.33;33.57
74561;BME280;62979;55.720;37.606;2023-05-15T07:56:36;100559.59;;;19.18;33.40
74561;BME280;62979;55.720;37.606;2023-05-15T07:59:03;100550.66;;;19.02;34.29
74561;BME280;62979;55.720;37.606;2023-05-15T08:01:30;100546.84;;;19.08;33.13
74561;BME280;62979;55.720;37.606;2023-05-15T08:03:56;100536.72;;;19.16;32.49
74561;BME280;62979;55.720;37.606;2023-05-15T08:06:23;100547.03;;;19.41;33.56
74561;BME280;62979;55.720;37.606;2023-05-15T08:08:50;100538.84;;;19.64;33.41
74561;BME280;62979;55.720;37.606;2023-05-15T08:11:17;100539.25;;;19.93;32.05
74561;BME280;62979;55.720;37.606;2023-05-15T08:13:45;100545.63;;;20.06;31.42
74561;BME280;62979;55.720;37.606;2023-05-15T08:16:12;100538.16;;;20.32;30.70
74561;BME280;62979;55.720;37.606;2023-05-15T08:18:39;100542.53;;;20.33;31.30
74561;BME280;62979;55.720;37.606;2023-05-15T08:21:06;100539.63;;;20.38;30.63
74561;BME280;62979;55.720;37.606;2023-05-15T08:23:33;100539.72;;;20.53;31.05
74561;BME280;62979;55.720;37.606;2023-05-15T08:26:00;100531.34;;;20.61;31.53
74561;BME280;62979;55.720;37.606;2023-05-15T08:28:27;100533.91;;;20.63;31.11
74561;BME280;62979;55.720;37.606;2023-05-15T08:30:55;100533.63;;;20.34;30.26
74561;BME280;62979;55.720;37.606;2023-05-15T08:33:22;100524.47;;;20.57;30.62
74561;BME280;62979;55.720;37.606;2023-05-15T08:35:49;100514.34;;;20.81;30.88
74561;BME280;62979;55.720;37.606;2023-05-15T08:38:16;100519.16;;;20.90;31.58
74561;BME280;62979;55.720;37.606;2023-05-15T08:40:45;100521.69;;;21.09;30.21
74561;BME280;62979;55.720;37.606;2023-05-15T08:43:16;100524.41;;;21.24;30.12
74561;BME280;62979;55.720;37.606;2023-05-15T08:45:44;100517.91;;;21.29;30.36
74561;BME280;62979;55.720;37.606;2023-05-15T08:48:15;100521.97;;;21.36;30.88
74561;BME280;62979;55.720;37.606;2023-05-15T08:50:45;100514.47;;;21.27;28.92
74561;BME280;62979;55.720;37.606;2023-05-15T08:53:13;100514.31;;;21.30;29.09
74561;BME280;62979;55.720;37.606;2023-05-15T08:55:40;100520.34;;;21.50;29.61
74561;BME280;62979;55.720;37.606;2023-05-15T08:58:07;100515.63;;;21.39;29.65
74561;BME280;62979;55.720;37.606;2023-05-15T09:00:35;100509.09;;;21.45;29.62
74561;BME280;62979;55.720;37.606;2023-05-15T09:03:02;100508.13;;;21.62;29.05
74561;BME280;62979;55.720;37.606;2023-05-15T09:05:30;100513.72;;;21.73;28.72
74561;BME280;62979;55.720;37.606;2023-05-15T09:07:58;100508.91;;;21.94;27.63
74561;BME280;62979;55.720;37.606;2023-05-15T09:10:29;100502.47;;;21.98;27.90
74561;BME280;62979;55.720;37.606;2023-05-15T09:13:01;100497.22;;;21.66;27.01
74561;BME280;62979;55.720;37.606;2023-05-15T09:15:29;100489.00;;;21.55;27.68
74561;BME280;62979;55.720;37.606;2023-05-15T09:17:57;100489.19;;;21.52;27.70
74561;BME280;62979;55.720;37.606;2023-05-15T09:20:26;100475.69;;;21.55;27.82
74561;BME280;62979;55.720;37.606;2023-05-15T09:22:56;100472.81;;;21.44;27.96
74561;BME280;62979;55.720;37.606;2023-05-15T09:25:32;100468.47;;;21.57;27.67
74561;BME280;62979;55.720;37.606;2023-05-15T09:28:01;100472.00;;;21.88;27.15
74561;BME280;62979;55.720;37.606;2023-05-15T09:30:29;100463.94;;;22.04;27.36
74561;BME280;62979;55.720;37.606;2023-05-15T09:32:57;100464.88;;;22.33;27.03
74561;BME280;62979;55.720;37.606;2023-05-15T09:35:32;100467.84;;;22.57;27.38
74561;BME280;62979;55.720;37.606;2023-05-15T09:38:02;100448.44;;;22.69;26.08
74561;BME280;62979;55.720;37.606;2023-05-15T09:40:33;100450.88;;;22.72;26.36
74561;BME280;62979;55.720;37.606;2023-05-15T09:42:59;100464.69;;;23.07;25.46
74561;BME280;62979;55.720;37.606;2023-05-15T09:45:27;100466.66;;;23.45;24.96
74561;BME280;62979;55.720;37.606;2023-05-15T09:47:58;100463.44;;;23.67;24.86
74561;BME280;62979;55.720;37.606;2023-05-15T09:50:32;100462.25;;;23.99;24.19
74561;BME280;62979;55.720;37.606;2023-05-15T09:53:02;100465.06;;;24.35;23.50
74561;BME280;62979;55.720;37.606;2023-05-15T09:55:30;100461.44;;;24.62;23.61
74561;BME280;62979;55.720;37.606;2023-05-15T09:58:05;100462.66;;;24.95;23.18
74561;BME280;62979;55.720;37.606;2023-05-15T10:00:34;100458.84;;;25.23;22.57
74561;BME280;62979;55.720;37.606;2023-05-15T10:03:03;100461.09;;;25.53;23.08
74561;BME280;62979;55.720;37.606;2023-05-15T10:05:31;100454.09;;;25.99;21.80
74561;BME280;62979;55.720;37.606;2023-05-15T10:07:58;100458.66;;;26.32;21.28
74561;BME280;62979;55.720;37.606;2023-05-15T10:10:27;100445.50;;;26.40;21.12
74561;BME280;62979;55.720;37.606;2023-05-15T10:12:56;100448.22;;;26.85;20.47
74561;BME280;62979;55.720;37.606;2023-05-15T10:15:28;100449.50;;;27.25;19.76
74561;BME280;62979;55.720;37.606;2023-05-15T10:17:55;100451.13;;;27.81;19.15
74561;BME280;62979;55.720;37.606;2023-05-15T10:20:24;100444.41;;;28.07;19.12
74561;BME280;62979;55.720;37.606;2023-05-15T10:22:53;100437.69;;;28.23;19.11
74561;BME280;62979;55.720;37.606;2023-05-15T10:25:30;100431.16;;;28.77;18.66
74561;BME280;62979;55.720;37.606;2023-05-15T10:28:01;100440.06;;;28.77;19.36
74561;BME280;62979;55.720;37.606;2023-05-15T10:30:30;100433.16;;;28.94;18.21
74561;BME280;62979;55.720;37.606;2023-05-15T10:32:58;100431.91;;;28.98;17.95
74561;BME280;62979;55.720;37.606;2023-05-15T10:35:27;100431.72;;;29.40;17.80
74561;BME280;62979;55.720;37.606;2023-05-15T10:37:54;100438.13;;;29.78;16.78
74561;BME280;62979;55.720;37.606;2023-05-15T10:40:23;100435.09;;;30.01;17.85
74561;BME280;62979;55.720;37.606;2023-05-15T10:42:53;100431.44;;;30.49;16.48
74561;BME280;62979;55.720;37.606;2023-05-15T10:45:22;100435.22;;;30.66;16.97
74561;BME280;62979;55.720;37.606;2023-05-15T10:47:49;100424.75;;;30.81;16.59
74561;BME280;62979;55.720;37.606;2023-05-15T10:50:18;100429.56;;;30.59;17.43
74561;BME280;62979;55.720;37.606;2023-05-15T10:52:49;100425.13;;;30.21;16.83
74561;BME280;62979;55.720;37.606;2023-05-15T10:55:17;100425.44;;;30.08;17.36
74561;BME280;62979;55.720;37.606;2023-05-15T10:57:44;100432.13;;;30.04;16.69
74561;BME280;62979;55.720;37.606;2023-05-15T11:00:27;100431.38;;;30.68;16.28
74561;BME280;62979;55.720;37.606;2023-05-15T11:02:56;100428.22;;;31.01;16.48
74561;BME280;62979;55.720;37.606;2023-05-15T11:05:25;100420.00;;;31.74;16.42
74561;BME280;62979;55.720;37.606;2023-05-15T11:08:23;100421.63;;;32.11;15.24
74561;BME280;62979;55.720;37.606;2023-05-15T11:10:53;100416.94;;;32.21;15.49
74561;BME280;62979;55.720;37.606;2023-05-15T11:13:20;100411.31;;;31.88;15.65
74561;BME280;62979;55.720;37.606;2023-05-15T11:15:49;100403.31;;;32.31;15.11
74561;BME280;62979;55.720;37.606;2023-05-15T11:18:16;100408.56;;;32.58;15.06
74561;BME280;62979;55.720;37.606;2023-05-15T11:21:06;100402.53;;;32.12;14.74
74561;BME280;62979;55.720;37.606;2023-05-15T11:23:38;100410.25;;;31.81;14.92
74561;BME280;62979;55.720;37.606;2023-05-15T11:26:06;100398.31;;;32.44;14.51
74561;BME280;62979;55.720;37.606;2023-05-15T11:28:40;100402.28;;;32.58;14.72
74561;BME280;62979;55.720;37.606;2023-05-15T11:31:28;100399.00;;;32.89;14.49
74561;BME280;62979;55.720;37.606;2023-05-15T11:33:55;100395.41;;;33.39;13.71
74561;BME280;62979;55.720;37.606;2023-05-15T11:36:23;100397.44;;;33.37;13.47
74561;BME280;62979;55.720;37.606;2023-05-15T11:38:51;100398.75;;;33.16;13.69
74561;BME280;62979;55.720;37.606;2023-05-15T11:41:19;100388.13;;;33.31;14.34
74561;BME280;62979;55.720;37.606;2023-05-15T11:43:51;100384.22;;;33.34;14.07
74561;BME280;62979;55.720;37.606;2023-05-15T11:46:21;100387.59;;;33.60;13.95
74561;BME280;62979;55.720;37.606;2023-05-15T11:48:49;100390.16;;;33.78;13.60
74561;BME280;62979;55.720;37.606;2023-05-15T11:51:17;100381.81;;;34.13;13.01
74561;BME280;62979;55.720;37.606;2023-05-15T11:53:46;100391.34;;;33.76;13.75
74561;BME280;62979;55.720;37.606;2023-05-15T11:56:19;100380.50;;;33.59;13.95
74561;BME280;62979;55.720;37.606;2023-05-15T11:58:47;100379.78;;;33.41;13.81
74561;BME280;62979;55.720;37.606;2023-05-15T12:01:15;100370.63;;;33.50;14.16
74561;BME280;62979;55.720;37.606;2023-05-15T12:03:45;100372.09;;;34.26;13.70
74561;BME280;62979;55.720;37.606;2023-05-15T12:06:13;100371.94;;;34.12;14.00
74561;BME280;62979;55.720;37.606;2023-05-15T12:08:41;100370.91;;;34.29;13.05
74561;BME280;62979;55.720;37.606;2023-05-15T12:11:09;100372.59;;;34.30;13.04
74561;BME280;62979;55.720;37.606;2023-05-15T12:13:37;100366.78;;;34.33;12.34
74561;BME280;62979;55.720;37.606;2023-05-15T12:16:04;100365.13;;;34.32;12.48
74561;BME280;62979;55.720;37.606;2023-05-15T12:18:32;100365.38;;;34.45;12.97
74561;BME280;62979;55.720;37.606;2023-05-15T12:21:01;100365.38;;;34.45;13.16
74561;BME280;62979;55.720;37.606;2023-05-15T12:23:31;100357.78;;;34.80;13.19
74561;BME280;62979;55.720;37.606;2023-05-15T12:26:00;100360.19;;;34.98;13.09
74561;BME280;62979;55.720;37.606;2023-05-15T12:28:28;100362.84;;;35.61;12.35
74561;BME280;62979;55.720;37.606;2023-05-15T12:30:57;100367.47;;;35.52;12.10
74561;BME280;62979;55.720;37.606;2023-05-15T12:33:25;100365.63;;;34.98;11.97
74561;BME280;62979;55.720;37.606;2023-05-15T12:35:54;100357.63;;;34.73;12.57
74561;BME280;62979;55.720;37.606;2023-05-15T12:38:23;100356.81;;;34.65;12.86
74561;BME280;62979;55.720;37.606;2023-05-15T12:40:51;100350.66;;;35.02;12.15
74561;BME280;62979;55.720;37.606;2023-05-15T12:43:19;100348.84;;;35.64;11.45
74561;BME280;62979;55.720;37.606;2023-05-15T12:45:51;100338.91;;;35.48;11.89
74561;BME280;62979;55.720;37.606;2023-05-15T12:48:19;100332.81;;;35.84;11.54
74561;BME280;62979;55.720;37.606;2023-05-15T12:50:46;100328.50;;;36.04;11.18